createdAt,value
2022-10-11T00:00:36.778Z,102082.03
2022-10-11T00:03:23.575Z,102082.22
2022-10-11T00:06:10.529Z,102089.56
2022-10-11T00:08:57.200Z,102091.47
2022-10-11T00:11:26.939Z,102100.47
2022-10-11T00:13:56.989Z,102095.19
2022-10-11T00:16:23.699Z,102095.31
2022-10-11T00:18:50.461Z,102091.91
2022-10-11T00:21:17.619Z,102095.50
2022-10-11T00:23:44.463Z,102101.00
2022-10-11T00:26:14.369Z,102101.13
2022-10-11T00:28:43.826Z,102098.53
2022-10-11T00:31:15.784Z,102094.09
2022-10-11T00:33:42.747Z,102098.56
2022-10-11T00:36:13.622Z,102104.91
2022-10-11T00:38:41.124Z,102105.84
2022-10-11T00:41:07.847Z,102103.16
2022-10-11T00:43:35.590Z,102096.94
2022-10-11T00:46:25.536Z,102107.72
2022-10-11T00:49:26.966Z,102106.91
2022-10-11T00:52:03.399Z,102110.63
2022-10-11T00:54:36.203Z,102112.41
2022-10-11T00:57:12.985Z,102111.41
2022-10-11T00:59:45.388Z,102116.72
2022-10-11T01:02:14.344Z,102112.31
2022-10-11T01:05:25.146Z,102112.28
2022-10-11T01:07:48.504Z,102115.00
2022-10-11T01:10:15.565Z,102119.59
2022-10-11T01:13:33.494Z,102121.44
2022-10-11T01:16:35.386Z,102125.09
2022-10-11T01:19:15.506Z,102117.13
2022-10-11T01:22:28.782Z,102120.75
2022-10-11T01:25:51.272Z,102127.16
2022-10-11T01:28:38.831Z,102130.88
2022-10-11T01:31:17.714Z,102136.28
2022-10-11T01:34:02.136Z,102130.16
2022-10-11T01:36:32.233Z,102130.25
2022-10-11T01:39:05.080Z,102132.19
2022-10-11T01:41:39.787Z,102131.41
2022-10-11T01:44:09.242Z,102139.53
2022-10-11T01:46:37.205Z,102138.72
2022-10-11T01:49:05.619Z,102129.84
2022-10-11T01:51:42.021Z,102131.69
2022-10-11T01:55:08.788Z,102129.06
2022-10-11T01:57:58.688Z,102130.97
2022-10-11T02:00:34.989Z,102133.72
2022-10-11T02:03:33.944Z,102138.34
2022-10-11T02:06:32.582Z,102132.22
2022-10-11T02:09:08.459Z,102135.09
2022-10-11T02:11:38.205Z,102139.59
2022-10-11T02:14:18.614Z,102150.13
2022-10-11T02:16:54.293Z,102142.84
2022-10-11T02:19:32.434Z,102139.19
2022-10-11T02:22:09.961Z,102150.75
2022-10-11T02:24:44.529Z,102150.75
2022-10-11T02:27:14.670Z,102146.31
2022-10-11T02:29:46.361Z,102155.28
2022-10-11T02:32:17.145Z,102155.28
2022-10-11T02:34:53.461Z,102157.16
2022-10-11T02:37:41.576Z,102154.59
2022-10-11T02:40:29.437Z,102158.25
2022-10-11T02:43:13.827Z,102160.16
2022-10-11T02:45:50.894Z,102159.38
2022-10-11T02:48:19.231Z,102163.09
2022-10-11T02:50:46.398Z,102164.06
2022-10-11T02:53:13.444Z,102161.44
2022-10-11T02:55:40.455Z,102157.13
2022-10-11T02:58:07.274Z,102161.63
2022-10-11T03:00:34.024Z,102167.06
2022-10-11T03:03:00.740Z,102158.19
2022-10-11T03:05:27.606Z,102156.53
2022-10-11T03:07:54.309Z,102163.72
2022-10-11T03:10:21.172Z,102163.91
2022-10-11T03:12:48.560Z,102167.66
2022-10-11T03:15:15.517Z,102158.84
2022-10-11T03:17:42.244Z,102158.09
2022-10-11T03:20:09.634Z,102155.59
2022-10-11T03:22:36.552Z,102160.22
2022-10-11T03:25:04.800Z,102161.97
2022-10-11T03:27:33.330Z,102162.81
2022-10-11T03:30:00.433Z,102168.09
2022-10-11T03:32:28.432Z,102161.91
2022-10-11T03:34:55.204Z,102169.94
2022-10-11T03:37:22.298Z,102171.75
2022-10-11T03:39:49.065Z,102177.25
2022-10-11T03:42:15.818Z,102172.81
2022-10-11T03:44:42.617Z,102175.56
2022-10-11T03:47:12.839Z,102175.66
2022-10-11T03:49:43.442Z,102189.03
2022-10-11T03:52:11.124Z,102186.38
2022-10-11T03:54:38.066Z,102187.28
2022-10-11T03:57:05.191Z,102179.22
2022-10-11T03:59:32.088Z,102177.50
2022-10-11T04:01:59.361Z,102188.22
2022-10-11T04:04:26.290Z,102188.22
2022-10-11T04:06:53.567Z,102188.22
2022-10-11T04:09:25.343Z,102190.97
2022-10-11T04:11:52.320Z,102190.13
2022-10-11T04:14:19.188Z,102192.03
2022-10-11T04:16:45.981Z,102191.31
2022-10-11T04:19:12.820Z,102193.25
2022-10-11T04:21:39.587Z,102202.16
2022-10-11T04:24:06.573Z,102204.69
2022-10-11T04:26:33.407Z,102199.31
2022-10-11T04:29:00.408Z,102211.88
2022-10-11T04:31:27.214Z,102203.06
2022-10-11T04:33:53.988Z,102210.28
2022-10-11T04:36:20.724Z,102220.22
2022-10-11T04:38:47.796Z,102228.38
2022-10-11T04:41:16.443Z,102215.97
2022-10-11T04:43:43.383Z,102220.44
2022-10-11T04:46:11.078Z,102224.91
2022-10-11T04:48:38.650Z,102230.28
2022-10-11T04:51:05.899Z,102224.03
2022-10-11T04:53:32.666Z,102224.03
2022-10-11T04:56:07.727Z,102226.69
2022-10-11T04:58:36.654Z,102229.31
2022-10-11T05:01:04.842Z,102235.56
2022-10-11T05:03:34.145Z,102228.38
2022-10-11T05:06:05.968Z,102231.88
2022-10-11T05:08:34.519Z,102238.06
2022-10-11T05:11:07.721Z,102231.88
2022-10-11T05:13:37.212Z,102232.78
2022-10-11T05:16:10.688Z,102239.91
2022-10-11T05:18:40.455Z,102238.97
2022-10-11T05:21:18.401Z,102239.88
2022-10-11T05:23:49.790Z,102237.25
2022-10-11T05:26:20.241Z,102244.50
2022-10-11T05:28:48.497Z,102237.47
2022-10-11T05:31:17.655Z,102244.66
2022-10-11T05:33:46.120Z,102253.53
2022-10-11T05:36:14.724Z,102248.19
2022-10-11T05:38:43.554Z,102243.81
2022-10-11T05:41:16.857Z,102241.28
2022-10-11T05:43:45.883Z,102248.53
2022-10-11T05:46:14.958Z,102250.47
2022-10-11T05:49:01.679Z,102248.75
2022-10-11T05:51:32.011Z,102253.31
2022-10-11T05:53:59.029Z,102257.84
2022-10-11T05:56:26.777Z,102257.84
2022-10-11T05:58:54.959Z,102257.78
2022-10-11T06:01:27.997Z,102256.97
2022-10-11T06:03:55.877Z,102265.03
2022-10-11T06:06:23.506Z,102268.66
2022-10-11T06:08:52.497Z,102273.91
2022-10-11T06:11:25.251Z,102270.31
2022-10-11T06:13:58.091Z,102269.44
2022-10-11T06:16:26.567Z,102279.13
2022-10-11T06:18:57.639Z,102273.63
2022-10-11T06:21:24.818Z,102285.09
2022-10-11T06:23:58.252Z,102280.53
2022-10-11T06:26:25.452Z,102285.81
2022-10-11T06:28:52.994Z,102287.53
2022-10-11T06:31:20.101Z,102292.78
2022-10-11T06:33:47.058Z,102290.06
2022-10-11T06:36:16.715Z,102307.03
2022-10-11T06:38:45.491Z,102301.56
2022-10-11T06:41:25.789Z,102293.34
2022-10-11T06:43:57.094Z,102296.75
2022-10-11T06:46:28.500Z,102306.38
2022-10-11T06:48:58.253Z,102307.13
2022-10-11T06:51:30.399Z,102314.06
2022-10-11T06:54:01.759Z,102308.47
2022-10-11T06:56:34.120Z,102321.66
2022-10-11T06:59:05.575Z,102315.06
2022-10-11T07:01:35.731Z,102317.34
2022-10-11T07:04:06.620Z,102311.47
2022-10-11T07:06:41.847Z,102316.59
2022-10-11T07:09:15.093Z,102327.06
2022-10-11T07:11:48.874Z,102317.91
2022-10-11T07:14:20.132Z,102318.59
2022-10-11T07:16:57.630Z,102331.81
2022-10-11T07:19:27.685Z,102328.94
2022-10-11T07:21:57.633Z,102331.47
2022-10-11T07:24:25.077Z,102335.81
2022-10-11T07:26:51.896Z,102342.78
2022-10-11T07:29:19.034Z,102340.00
2022-10-11T07:31:45.929Z,102343.41
2022-10-11T07:34:12.719Z,102344.13
2022-10-11T07:36:39.831Z,102346.66
2022-10-11T07:39:08.751Z,102348.31
2022-10-11T07:41:36.660Z,102357.13
2022-10-11T07:44:03.552Z,102361.41
2022-10-11T07:46:30.645Z,102352.31
2022-10-11T07:48:57.473Z,102351.25
2022-10-11T07:51:25.067Z,102351.97
2022-10-11T07:53:56.364Z,102357.97
2022-10-11T07:56:27.665Z,102362.22
2022-10-11T07:58:58.670Z,102359.34
2022-10-11T08:01:40.743Z,102364.53
2022-10-11T08:04:07.569Z,102360.66
2022-10-11T08:06:36.483Z,102359.34
2022-10-11T08:09:04.255Z,102365.13
2022-10-11T08:11:40.223Z,102361.06
2022-10-11T08:14:09.152Z,102363.28
2022-10-11T08:16:38.916Z,102363.66
2022-10-11T08:19:07.403Z,102364.97
2022-10-11T08:21:34.812Z,102364.63
2022-10-11T08:24:04.250Z,102365.16
2022-10-11T08:26:32.210Z,102364.78
2022-10-11T08:29:03.370Z,102367.22
2022-10-11T08:31:30.615Z,102367.78
2022-10-11T08:33:57.496Z,102374.66
2022-10-11T08:36:24.472Z,102376.94
2022-10-11T08:38:51.336Z,102379.09
2022-10-11T08:41:38.436Z,102382.34
2022-10-11T08:44:51.747Z,102388.13
2022-10-11T08:47:42.868Z,102385.75
2022-10-11T08:50:20.769Z,102388.97
2022-10-11T08:52:52.526Z,102394.84
2022-10-11T08:55:38.238Z,102392.47
2022-10-11T08:58:05.132Z,102395.56
2022-10-11T09:00:36.309Z,102395.25
2022-10-11T09:03:21.957Z,102397.59
2022-10-11T09:06:16.224Z,102398.13
2022-10-11T09:09:40.009Z,102392.06
2022-10-11T09:12:29.519Z,102396.63
2022-10-11T09:15:26.924Z,102404.16
2022-10-11T09:18:49.847Z,102400.91
2022-10-11T09:21:42.001Z,102396.66
2022-10-11T09:24:31.838Z,102397.19
2022-10-11T09:27:14.155Z,102406.69
2022-10-11T09:29:55.965Z,102398.22
2022-10-11T09:32:28.807Z,102410.31
2022-10-11T09:35:10.504Z,102404.78
2022-10-11T09:37:57.745Z,102411.94
2022-10-11T09:41:07.781Z,102406.53
2022-10-11T09:43:34.732Z,102402.59
2022-10-11T09:46:01.831Z,102403.72
2022-10-11T09:48:41.555Z,102403.13
2022-10-11T09:51:29.143Z,102413.66
2022-10-11T09:54:05.645Z,102408.84
2022-10-11T09:56:40.195Z,102408.19
2022-10-11T09:59:27.751Z,102410.34
2022-10-11T10:02:12.781Z,102405.44
2022-10-11T10:05:16.451Z,102411.31
2022-10-11T10:08:10.870Z,102400.16
2022-10-11T10:10:48.760Z,102411.38
2022-10-11T10:13:29.695Z,102406.19
2022-10-11T10:15:59.227Z,102404.56
2022-10-11T10:18:42.561Z,102403.28
2022-10-11T10:21:14.978Z,102400.13
2022-10-11T10:23:43.173Z,102403.31
2022-10-11T10:26:20.471Z,102392.50
2022-10-11T10:28:59.272Z,102397.25
2022-10-11T10:32:12.997Z,102396.03
2022-10-11T10:34:41.482Z,102395.88
2022-10-11T10:37:54.165Z,102403.56
2022-10-11T10:40:41.310Z,102390.44
2022-10-11T10:43:18.699Z,102389.72
2022-10-11T10:46:16.599Z,102399.69
2022-10-11T10:52:20.709Z,102391.41
2022-10-11T10:55:14.666Z,102400.00
2022-10-11T10:58:07.122Z,102394.03
2022-10-11T11:00:47.545Z,102393.63
2022-10-11T11:03:32.219Z,102384.16
2022-10-11T11:06:08.343Z,102389.03
2022-10-11T11:09:00.036Z,102382.53
2022-10-11T11:12:02.973Z,102390.28
2022-10-11T11:14:41.581Z,102378.34
2022-10-11T11:17:29.454Z,102383.22
2022-10-11T11:20:17.082Z,102373.53
2022-10-11T11:23:10.281Z,102374.53
2022-10-11T11:25:51.185Z,102370.06
2022-10-11T11:29:06.325Z,102373.38
2022-10-11T11:32:05.030Z,102366.78
2022-10-11T11:35:03.276Z,102370.25
2022-10-11T11:37:42.328Z,102357.25
2022-10-11T11:40:21.331Z,102351.81
2022-10-11T11:43:07.168Z,102358.78
2022-10-11T11:45:51.285Z,102352.56
2022-10-11T11:48:24.718Z,102354.69
2022-10-11T11:51:07.948Z,102357.72
2022-10-11T11:54:15.924Z,102352.03
2022-10-11T11:56:51.252Z,102347.34
2022-10-11T11:59:37.376Z,102339.06
2022-10-11T12:02:51.715Z,102346.94
2022-10-11T12:05:27.809Z,102333.44
2022-10-11T12:08:03.452Z,102334.13
2022-10-11T12:10:53.428Z,102333.69
2022-10-11T12:13:32.471Z,102333.47
2022-10-11T12:16:21.490Z,102322.66
2022-10-11T12:19:02.960Z,102324.53
2022-10-11T12:21:35.004Z,102333.34
2022-10-11T12:24:20.049Z,102334.75
2022-10-11T12:26:54.512Z,102329.72
2022-10-11T12:29:48.712Z,102329.81
2022-10-11T12:32:27.584Z,102322.25
2022-10-11T12:35:30.078Z,102325.88
2022-10-11T12:38:37.169Z,102329.28
2022-10-11T12:41:09.865Z,102322.47
2022-10-11T12:44:07.685Z,102313.63
2022-10-11T12:47:01.588Z,102316.63
2022-10-11T12:49:49.759Z,102321.47
2022-10-11T12:52:27.601Z,102311.41
2022-10-11T12:55:12.517Z,102320.00
2022-10-11T12:58:05.978Z,102319.66
2022-10-11T13:01:02.772Z,102309.97
2022-10-11T13:03:50.753Z,102303.44
2022-10-11T13:06:45.633Z,102303.91
2022-10-11T13:09:35.004Z,102301.50
2022-10-11T13:12:25.870Z,102304.47
2022-10-11T13:15:07.005Z,102303.56
2022-10-11T13:17:39.089Z,102308.91
2022-10-11T13:20:28.440Z,102304.28
2022-10-11T13:22:57.358Z,102309.59
2022-10-11T13:25:36.882Z,102295.06
2022-10-11T13:28:09.355Z,102298.97
2022-10-11T13:30:42.415Z,102294.69
2022-10-11T13:33:25.425Z,102298.41
2022-10-11T13:35:53.767Z,102293.38
2022-10-11T13:38:27.457Z,102293.75
2022-10-11T13:40:58.179Z,102295.25
2022-10-11T13:43:31.024Z,102291.00
2022-10-11T13:46:01.800Z,102287.22
2022-10-11T13:48:31.839Z,102293.19
2022-10-11T13:51:28.781Z,102289.22
2022-10-11T13:54:06.208Z,102292.63
2022-10-11T13:56:46.206Z,102290.56
2022-10-11T13:59:23.917Z,102286.44
2022-10-11T14:02:00.128Z,102295.22
2022-10-11T14:04:29.924Z,102291.31
2022-10-11T14:07:03.292Z,102288.47
2022-10-11T14:09:38.510Z,102285.84
2022-10-11T14:12:43.191Z,102277.69
2022-10-11T14:15:36.013Z,102285.44
2022-10-11T14:18:49.807Z,102275.66
2022-10-11T14:21:19.261Z,102270.19
2022-10-11T14:24:10.533Z,102269.75
2022-10-11T14:26:39.924Z,102273.69
2022-10-11T14:29:32.788Z,102272.97
2022-10-11T14:32:05.848Z,102273.66
2022-10-11T14:34:34.507Z,102265.75
2022-10-11T14:37:01.269Z,102263.50
2022-10-11T14:39:31.927Z,102263.00
2022-10-11T14:41:59.389Z,102264.31
2022-10-11T14:44:26.364Z,102269.31
2022-10-11T14:46:54.762Z,102265.38
2022-10-11T14:49:26.627Z,102268.66
2022-10-11T14:51:57.385Z,102264.97
2022-10-11T14:54:27.063Z,102266.22
2022-10-11T14:56:57.141Z,102261.47
2022-10-11T14:59:31.628Z,102265.31
2022-10-11T15:01:58.406Z,102255.84
2022-10-11T15:04:27.197Z,102258.81
2022-10-11T15:06:56.508Z,102260.25
2022-10-11T15:09:28.267Z,102266.06
2022-10-11T15:11:55.753Z,102261.72
2022-10-11T15:14:23.767Z,102253.94
2022-10-11T15:16:50.984Z,102255.59
2022-10-11T15:19:22.351Z,102248.25
2022-10-11T15:21:49.822Z,102256.47
2022-10-11T15:24:19.942Z,102247.31
2022-10-11T15:26:48.052Z,102253.75
2022-10-11T15:29:17.919Z,102246.66
2022-10-11T15:31:46.046Z,102247.06
2022-10-11T15:34:12.802Z,102240.66
2022-10-11T15:36:39.640Z,102233.66
2022-10-11T15:39:32.511Z,102237.88
2022-10-11T15:41:59.625Z,102239.59
2022-10-11T15:44:26.554Z,102231.66
2022-10-11T15:46:53.530Z,102233.88
2022-10-11T15:49:20.596Z,102231.06
2022-10-11T15:51:47.496Z,102227.31
2022-10-11T15:54:14.190Z,102226.56
2022-10-11T15:56:41.085Z,102225.53
2022-10-11T15:59:11.585Z,102240.03
2022-10-11T16:01:38.411Z,102227.44
2022-10-11T16:04:05.470Z,102228.59
2022-10-11T16:06:33.293Z,102229.50
2022-10-11T16:09:00.039Z,102217.47
2022-10-11T16:11:26.839Z,102222.75
2022-10-11T16:13:53.553Z,102222.34
2022-10-11T16:16:20.281Z,102212.75
2022-10-11T16:18:50.279Z,102214.06
2022-10-11T16:21:17.231Z,102220.28
2022-10-11T16:23:44.020Z,102212.59
2022-10-11T16:26:16.503Z,102230.19
2022-10-11T16:28:44.099Z,102222.28
2022-10-11T16:31:20.947Z,102225.19
2022-10-11T16:33:48.652Z,102222.59
2022-10-11T16:36:40.212Z,102227.09
2022-10-11T16:39:15.017Z,102224.69
2022-10-11T16:41:42.870Z,102216.59
2022-10-11T16:44:15.412Z,102224.19
2022-10-11T16:46:47.675Z,102217.97
2022-10-11T16:49:21.972Z,102214.38
2022-10-11T16:51:51.476Z,102216.97
2022-10-11T16:54:20.468Z,102217.72
2022-10-11T16:56:51.512Z,102214.09
2022-10-11T16:59:18.523Z,102221.13
2022-10-11T17:01:45.914Z,102214.59
2022-10-11T17:04:13.466Z,102217.13
2022-10-11T17:06:41.201Z,102213.47
2022-10-11T17:09:07.967Z,102221.44
2022-10-11T17:11:34.693Z,102226.59
2022-10-11T17:14:02.411Z,102220.03
2022-10-11T17:16:29.414Z,102218.69
2022-10-11T17:18:56.216Z,102223.69
2022-10-11T17:21:24.148Z,102225.00
2022-10-11T17:23:51.333Z,102225.34
2022-10-11T17:26:26.298Z,102234.75
2022-10-11T17:28:58.882Z,102228.88
2022-10-11T17:31:27.917Z,102223.88
2022-10-11T17:33:57.559Z,102223.31
2022-10-11T17:36:31.731Z,102224.72
2022-10-11T17:39:01.713Z,102234.97
2022-10-11T17:41:31.984Z,102232.56
2022-10-11T17:44:01.234Z,102230.16
2022-10-11T17:46:32.323Z,102230.84
2022-10-11T17:49:04.859Z,102224.13
2022-10-11T17:51:32.910Z,102238.94
2022-10-11T17:53:59.745Z,102239.25
2022-10-11T17:56:31.352Z,102232.41
2022-10-11T17:59:00.892Z,102236.22
2022-10-11T18:01:29.674Z,102238.28
2022-10-11T18:04:00.901Z,102241.19
2022-10-11T18:06:31.858Z,102236.97
2022-10-11T18:09:04.258Z,102237.28
2022-10-11T18:11:31.667Z,102232.34
2022-10-11T18:13:58.562Z,102240.78
2022-10-11T18:16:30.406Z,102241.97
2022-10-11T18:18:58.552Z,102234.25
2022-10-11T18:21:29.974Z,102236.38
2022-10-11T18:24:03.627Z,102234.13
2022-10-11T18:26:31.195Z,102233.66
2022-10-11T18:28:59.295Z,102235.88
2022-10-11T18:31:30.579Z,102233.50
2022-10-11T18:33:58.742Z,102228.25
2022-10-11T18:36:28.974Z,102232.06
2022-10-11T18:39:01.047Z,102230.38
2022-10-11T18:41:31.974Z,102233.38
2022-10-11T18:44:04.256Z,102230.25
2022-10-11T18:46:32.481Z,102227.97
2022-10-11T18:49:02.130Z,102229.91
2022-10-11T18:51:36.369Z,102236.25
2022-10-11T18:54:05.508Z,102233.66
2022-10-11T18:56:34.536Z,102223.03
2022-10-11T18:59:01.299Z,102224.94
2022-10-11T19:01:44.626Z,102223.44
2022-10-11T19:04:19.123Z,102224.72
2022-10-11T19:06:57.315Z,102226.00
2022-10-11T19:09:40.952Z,102224.50
2022-10-11T19:12:20.293Z,102226.41
2022-10-11T19:14:53.243Z,102228.41
2022-10-11T19:17:39.937Z,102225.97
2022-10-11T19:20:16.116Z,102211.75
2022-10-11T19:22:49.923Z,102214.50
2022-10-11T19:25:22.006Z,102223.56
2022-10-11T19:27:54.449Z,102216.41
2022-10-11T19:30:32.263Z,102225.56
2022-10-11T19:33:11.467Z,102220.41
2022-10-11T19:35:59.242Z,102215.16
2022-10-11T19:38:36.849Z,102214.47
2022-10-11T19:41:10.221Z,102207.59
2022-10-11T19:43:46.834Z,102203.28
2022-10-11T19:46:50.499Z,102203.50
2022-10-11T19:49:28.076Z,102202.00
2022-10-11T19:52:14.790Z,102204.03
2022-10-11T19:54:53.066Z,102205.91
2022-10-11T19:57:39.788Z,102205.06
2022-10-11T20:00:25.405Z,102204.25
2022-10-11T20:02:52.389Z,102207.91
2022-10-11T20:05:19.189Z,102204.41
2022-10-11T20:07:45.990Z,102203.56
2022-10-11T20:10:12.820Z,102203.72
2022-10-11T20:12:45.042Z,102199.25
2022-10-11T20:15:12.618Z,102193.78
2022-10-11T20:17:48.610Z,102204.53
2022-10-11T20:20:18.186Z,102203.72
2022-10-11T20:22:45.134Z,102204.63
2022-10-11T20:25:12.069Z,102204.78
2022-10-11T20:27:42.382Z,102195.84
2022-10-11T20:30:10.284Z,102204.06
2022-10-11T20:32:37.021Z,102201.50
2022-10-11T20:35:04.106Z,102192.50
2022-10-11T20:37:31.189Z,102194.38
2022-10-11T20:39:58.505Z,102198.00
2022-10-11T20:42:28.929Z,102199.00
2022-10-11T20:44:56.723Z,102198.25
2022-10-11T20:47:23.471Z,102197.34
2022-10-11T20:49:50.240Z,102196.47
2022-10-11T20:52:17.106Z,102196.59
2022-10-11T20:54:43.929Z,102202.09
2022-10-11T20:57:10.741Z,102205.72
2022-10-11T20:59:38.001Z,102211.09
2022-10-11T21:02:04.731Z,102213.91
2022-10-11T21:04:31.467Z,102213.06
2022-10-11T21:06:58.175Z,102220.31
2022-10-11T21:09:25.006Z,102218.63
2022-10-11T21:11:51.749Z,102206.16
2022-10-11T21:14:18.587Z,102217.06
2022-10-11T21:16:45.367Z,102212.84
2022-10-11T21:19:15.998Z,102214.78
2022-10-11T21:21:46.439Z,102212.25
2022-10-11T21:24:15.200Z,102207.09
2022-10-11T21:26:41.902Z,102209.19
2022-10-11T21:29:08.706Z,102207.69
2022-10-11T21:31:35.974Z,102210.53
2022-10-11T21:34:05.125Z,102200.88
2022-10-11T21:36:31.961Z,102211.72
2022-10-11T21:38:58.751Z,102206.47
2022-10-11T21:41:30.060Z,102197.44
2022-10-11T21:43:57.888Z,102201.09
2022-10-11T21:49:19.240Z,102205.75
2022-10-11T21:51:46.308Z,102201.44
2022-10-11T21:54:13.074Z,102207.78
2022-10-11T21:56:39.894Z,102207.00
2022-10-11T21:59:11.124Z,102205.31
2022-10-11T22:01:41.731Z,102204.53
2022-10-11T22:04:10.844Z,102203.72
2022-10-11T22:06:38.769Z,102201.13
2022-10-11T22:09:07.713Z,102202.28
2022-10-11T22:11:35.413Z,102204.34
2022-10-11T22:14:02.653Z,102211.69
2022-10-11T22:16:29.785Z,102199.31
2022-10-11T22:18:56.915Z,102201.13
2022-10-11T22:21:23.921Z,102208.50
2022-10-11T22:23:53.939Z,102195.41
2022-10-11T22:26:30.567Z,102198.28
2022-10-11T22:28:59.519Z,102195.72
2022-10-11T22:31:26.752Z,102194.94
2022-10-11T22:34:00.375Z,102187.97
2022-10-11T22:36:30.424Z,102199.72
2022-10-11T22:38:58.585Z,102195.41
2022-10-11T22:41:25.892Z,102188.41
2022-10-11T22:43:52.977Z,102192.00
2022-10-11T22:46:19.925Z,102186.63
2022-10-11T22:48:46.902Z,102187.47
2022-10-11T22:51:14.474Z,102190.16
2022-10-11T22:53:41.628Z,102190.16
2022-10-11T22:56:09.334Z,102187.53
2022-10-11T22:58:36.884Z,102184.09
2022-10-11T23:01:12.798Z,102177.09
2022-10-11T23:03:40.039Z,102183.53
2022-10-11T23:06:07.725Z,102177.25
2022-10-11T23:08:34.797Z,102178.16
2022-10-11T23:11:07.132Z,102179.91
2022-10-11T23:13:35.190Z,102185.25
2022-10-11T23:16:10.701Z,102186.09
2022-10-11T23:18:38.278Z,102177.13
2022-10-11T23:21:06.876Z,102189.50
2022-10-11T23:23:34.513Z,102185.09
2022-10-11T23:26:02.222Z,102183.31
2022-10-11T23:28:29.407Z,102177.94
2022-10-11T23:30:56.655Z,102179.81
2022-10-11T23:33:23.703Z,102183.56
2022-10-11T23:35:51.010Z,102189.84
2022-10-11T23:38:18.146Z,102187.22
2022-10-11T23:40:45.184Z,102186.38
2022-10-11T23:43:12.355Z,102182.81
2022-10-11T23:45:39.496Z,102186.44
2022-10-11T23:48:06.641Z,102180.19
2022-10-11T23:50:33.676Z,102178.53
2022-10-11T23:53:00.713Z,102184.88
2022-10-11T23:55:27.804Z,102182.19
2022-10-11T23:57:54.849Z,102178.63
